KMGM 191153Z 23004KT 10SM CLR 26/22 A3004 RMK AO2 SLP168 T02560222 10261 20250 51014